createdAt,value
2018-12-25T00:00:29.966Z,1023.02
2018-12-25T00:01:29.954Z,1022.99
2018-12-25T00:02:29.957Z,1023.00
2018-12-25T00:03:29.956Z,1023.02
2018-12-25T00:04:29.926Z,1023.00
2018-12-25T00:05:29.919Z,1023.01
2018-12-25T00:06:29.902Z,1023.00
2018-12-25T00:07:29.892Z,1023.01
2018-12-25T00:08:29.883Z,1023.05
2018-12-25T00:09:29.891Z,1023.04
2018-12-25T00:10:29.865Z,1023.04
2018-12-25T00:11:29.858Z,1023.01
2018-12-25T00:12:29.838Z,1023.01
2018-12-25T00:13:29.838Z,1022.98
2018-12-25T00:14:29.825Z,1023.01
2018-12-25T00:15:29.808Z,1022.99
2018-12-25T00:16:29.801Z,1022.97
2018-12-25T00:17:29.786Z,1022.95
2018-12-25T00:18:29.799Z,1022.98
2018-12-25T00:19:29.771Z,1022.93
2018-12-25T00:20:29.761Z,1022.95
2018-12-25T00:21:29.750Z,1022.97
2018-12-25T00:22:29.740Z,1022.97
2018-12-25T00:23:29.731Z,1023.03
2018-12-25T00:24:29.724Z,1022.99
2018-12-25T00:25:29.702Z,1022.97
2018-12-25T00:26:29.693Z,1022.92
2018-12-25T00:27:29.687Z,1022.97
2018-12-25T00:28:29.677Z,1022.91
2018-12-25T00:29:29.676Z,1022.87
2018-12-25T00:30:29.655Z,1022.88
2018-12-25T00:31:29.639Z,1022.88
2018-12-25T00:32:29.636Z,1022.90
2018-12-25T00:33:29.625Z,1022.87
2018-12-25T00:34:29.621Z,1022.92
2018-12-25T00:35:29.598Z,1022.91
2018-12-25T00:36:29.625Z,1022.88
2018-12-25T00:37:29.577Z,1022.90
2018-12-25T00:38:29.574Z,1022.93
2018-12-25T00:39:29.557Z,1022.84
2018-12-25T00:40:29.549Z,1022.85
2018-12-25T00:41:29.542Z,1022.83
2018-12-25T00:42:29.552Z,1022.80
2018-12-25T00:43:29.519Z,1022.79
2018-12-25T00:44:29.504Z,1022.85
2018-12-25T00:45:29.505Z,1022.82
2018-12-25T00:46:29.487Z,1022.82
2018-12-25T00:47:29.472Z,1022.79
2018-12-25T00:48:29.467Z,1022.72
2018-12-25T00:49:29.453Z,1022.73
2018-12-25T00:50:29.453Z,1022.77
2018-12-25T00:51:29.433Z,1022.75
2018-12-25T00:52:29.427Z,1022.75
2018-12-25T00:53:29.417Z,1022.76
2018-12-25T00:54:29.404Z,1022.80
2018-12-25T00:55:29.395Z,1022.75
2018-12-25T00:56:29.393Z,1022.78
2018-12-25T00:57:29.367Z,1022.83
2018-12-25T00:58:29.362Z,1022.76
2018-12-25T00:59:29.348Z,1022.82
2018-12-25T01:00:29.342Z,1022.81
2018-12-25T01:01:29.340Z,1022.83
2018-12-25T01:02:29.317Z,1022.84
2018-12-25T01:03:29.312Z,1022.88
2018-12-25T01:04:29.298Z,1022.85
2018-12-25T01:05:29.291Z,1022.86
2018-12-25T01:06:29.313Z,1022.85
2018-12-25T01:07:29.262Z,1022.90
2018-12-25T01:08:29.258Z,1022.90
2018-12-25T01:09:29.247Z,1022.88
2018-12-25T01:10:29.238Z,1022.86
2018-12-25T01:11:29.230Z,1022.85
2018-12-25T01:12:29.220Z,1022.88
2018-12-25T01:13:29.202Z,1022.88
2018-12-25T01:14:29.193Z,1022.90
2018-12-25T01:15:29.185Z,1022.91
2018-12-25T01:16:29.177Z,1022.89
2018-12-25T01:17:29.172Z,1022.89
2018-12-25T01:18:29.155Z,1022.84
2018-12-25T01:19:29.138Z,1022.82
2018-12-25T01:20:29.132Z,1022.86
2018-12-25T01:21:29.151Z,1022.88
2018-12-25T01:22:29.111Z,1022.85
2018-12-25T01:23:29.105Z,1022.93
2018-12-25T01:24:29.086Z,1022.94
2018-12-25T01:25:29.090Z,1022.97
2018-12-25T01:26:29.063Z,1022.97
2018-12-25T01:27:29.091Z,1022.99
2018-12-25T01:28:29.049Z,1022.98
2018-12-25T01:29:29.033Z,1022.95
2018-12-25T01:30:29.027Z,1023.08
2018-12-25T01:31:29.035Z,1022.99
2018-12-25T01:32:29.001Z,1023.03
2018-12-25T01:33:28.997Z,1022.95
2018-12-25T01:34:28.987Z,1023.03
2018-12-25T01:35:28.980Z,1023.04
2018-12-25T01:36:28.965Z,1023.03
2018-12-25T01:37:28.955Z,1023.06
2018-12-25T01:38:28.969Z,1023.05
2018-12-25T01:39:28.930Z,1023.01
2018-12-25T01:40:28.924Z,1023.04
2018-12-25T01:41:28.912Z,1022.97
2018-12-25T01:42:28.898Z,1022.99
2018-12-25T01:43:28.891Z,1022.98
2018-12-25T01:44:28.897Z,1022.98
2018-12-25T01:45:28.872Z,1022.95
2018-12-25T01:46:28.863Z,1022.94
2018-12-25T01:47:28.852Z,1022.99
2018-12-25T01:48:28.833Z,1022.94
2018-12-25T01:49:31.914Z,1023.01
2018-12-25T01:50:28.827Z,1022.97
2018-12-25T01:51:28.807Z,1022.95
2018-12-25T01:52:28.799Z,1023.00
2018-12-25T01:53:28.785Z,1022.99
2018-12-25T01:54:28.779Z,1022.98
2018-12-25T01:55:28.773Z,1022.99
2018-12-25T01:56:28.756Z,1023.01
2018-12-25T01:57:28.738Z,1023.03
2018-12-25T01:58:28.736Z,1023.02
2018-12-25T01:59:28.752Z,1022.96
2018-12-25T02:00:28.707Z,1022.91
2018-12-25T02:01:28.701Z,1022.97
2018-12-25T02:02:28.691Z,1023.01
2018-12-25T02:03:28.676Z,1022.98
2018-12-25T02:04:28.672Z,1022.96
2018-12-25T02:05:28.665Z,1022.94
2018-12-25T02:06:28.649Z,1022.95
2018-12-25T02:07:28.639Z,1022.96
2018-12-25T02:08:28.628Z,1022.94
2018-12-25T02:09:28.614Z,1022.99
2018-12-25T02:10:28.613Z,1022.96
2018-12-25T02:11:28.599Z,1022.95
2018-12-25T02:12:28.586Z,1022.95
2018-12-25T02:13:28.574Z,1022.93
2018-12-25T02:14:28.568Z,1022.94
2018-12-25T02:15:28.564Z,1022.99
2018-12-25T02:16:28.539Z,1022.90
2018-12-25T02:17:28.536Z,1022.89
2018-12-25T02:18:28.519Z,1022.89
2018-12-25T02:19:28.511Z,1022.91
2018-12-25T02:20:28.528Z,1022.89
2018-12-25T02:21:28.492Z,1022.89
2018-12-25T02:22:28.477Z,1022.88
2018-12-25T02:23:28.478Z,1022.88
2018-12-25T02:24:28.455Z,1022.87
2018-12-25T02:25:28.446Z,1022.89
2018-12-25T02:26:28.448Z,1022.90
2018-12-25T02:27:28.429Z,1022.86
2018-12-25T02:28:28.422Z,1022.84
2018-12-25T02:29:28.404Z,1022.84
2018-12-25T02:30:28.414Z,1022.85
2018-12-25T02:31:28.395Z,1022.79
2018-12-25T02:32:28.378Z,1022.82
2018-12-25T02:33:28.368Z,1022.85
2018-12-25T02:34:28.360Z,1022.86
2018-12-25T02:35:28.347Z,1022.81
2018-12-25T02:36:28.349Z,1022.79
2018-12-25T02:37:28.323Z,1022.86
2018-12-25T02:38:28.321Z,1022.88
2018-12-25T02:39:28.299Z,1022.84
2018-12-25T02:40:28.295Z,1022.84
2018-12-25T02:41:28.281Z,1022.77
2018-12-25T02:42:28.270Z,1022.82
2018-12-25T02:43:28.286Z,1022.72
2018-12-25T02:44:28.245Z,1022.76
2018-12-25T02:45:28.236Z,1022.80
2018-12-25T02:46:28.233Z,1022.76
2018-12-25T02:47:28.216Z,1022.77
2018-12-25T02:48:28.205Z,1022.77
2018-12-25T02:49:28.206Z,1022.75
2018-12-25T02:50:28.188Z,1022.75
2018-12-25T02:51:28.187Z,1022.74
2018-12-25T02:52:28.172Z,1022.76
2018-12-25T02:53:28.150Z,1022.75
2018-12-25T02:54:28.172Z,1022.69
2018-12-25T02:55:28.138Z,1022.73
2018-12-25T02:56:28.123Z,1022.70
2018-12-25T02:57:28.109Z,1022.64
2018-12-25T02:58:28.100Z,1022.68
2018-12-25T02:59:28.093Z,1022.79
2018-12-25T03:00:28.089Z,1022.72
2018-12-25T03:01:28.068Z,1022.68
2018-12-25T03:02:28.062Z,1022.66
2018-12-25T03:03:28.047Z,1022.73
2018-12-25T03:04:28.038Z,1022.68
2018-12-25T03:05:28.041Z,1022.66
2018-12-25T03:06:28.021Z,1022.60
2018-12-25T03:07:28.005Z,1022.58
2018-12-25T03:08:27.994Z,1022.57
2018-12-25T03:09:27.987Z,1022.52
2018-12-25T03:10:28.017Z,1022.49
2018-12-25T03:11:27.966Z,1022.55
2018-12-25T03:12:27.961Z,1022.60
2018-12-25T03:13:27.941Z,1022.52
2018-12-25T03:14:27.942Z,1022.50
2018-12-25T03:15:27.925Z,1022.50
2018-12-25T03:16:27.923Z,1022.47
2018-12-25T03:17:27.900Z,1022.49
2018-12-25T03:18:27.895Z,1022.48
2018-12-25T03:19:27.881Z,1022.54
2018-12-25T03:20:27.869Z,1022.42
2018-12-25T03:21:27.893Z,1022.39
2018-12-25T03:22:27.847Z,1022.43
2018-12-25T03:23:27.840Z,1022.46
2018-12-25T03:24:27.827Z,1022.42
2018-12-25T03:25:27.821Z,1022.39
2018-12-25T03:26:27.817Z,1022.42
2018-12-25T03:27:27.804Z,1022.41
2018-12-25T03:28:27.785Z,1022.36
2018-12-25T03:29:27.772Z,1022.42
2018-12-25T03:30:27.777Z,1022.45
2018-12-25T03:31:27.753Z,1022.51
2018-12-25T03:32:27.757Z,1022.61
2018-12-25T03:33:27.731Z,1022.52
2018-12-25T03:34:27.725Z,1022.41
2018-12-25T03:35:27.718Z,1022.28
2018-12-25T03:36:27.709Z,1022.24
2018-12-25T03:37:27.699Z,1022.31
2018-12-25T03:38:27.677Z,1022.46
2018-12-25T03:39:27.677Z,1022.41
2018-12-25T03:40:27.655Z,1022.44
2018-12-25T03:41:27.647Z,1022.41
2018-12-25T03:42:27.637Z,1022.34
2018-12-25T03:43:27.643Z,1022.33
2018-12-25T03:44:27.645Z,1022.34
2018-12-25T03:45:27.609Z,1022.33
2018-12-25T03:46:27.595Z,1022.32
2018-12-25T03:47:27.586Z,1022.34
2018-12-25T03:48:27.575Z,1022.33
2018-12-25T03:49:27.566Z,1022.31
2018-12-25T03:50:27.561Z,1022.28
2018-12-25T03:51:27.545Z,1022.33
2018-12-25T03:52:27.536Z,1022.23
2018-12-25T03:53:27.531Z,1022.32
2018-12-25T03:54:27.519Z,1022.28
2018-12-25T03:55:27.510Z,1022.33
2018-12-25T03:56:27.492Z,1022.38
2018-12-25T03:57:27.521Z,1022.34
2018-12-25T03:58:27.472Z,1022.38
2018-12-25T03:59:27.461Z,1022.42
2018-12-25T04:00:27.450Z,1022.43
2018-12-25T04:01:27.438Z,1022.40
2018-12-25T04:02:27.428Z,1022.43
2018-12-25T04:03:27.423Z,1022.41
2018-12-25T04:04:27.405Z,1022.39
2018-12-25T04:05:27.404Z,1022.39
2018-12-25T04:06:27.383Z,1022.34
2018-12-25T04:07:27.371Z,1022.33
2018-12-25T04:08:27.360Z,1022.35
2018-12-25T04:09:27.352Z,1022.33
2018-12-25T04:10:27.369Z,1022.30
2018-12-25T04:11:27.331Z,1022.23
2018-12-25T04:12:27.324Z,1022.26
2018-12-25T04:13:27.314Z,1022.23
2018-12-25T04:14:27.298Z,1022.22
2018-12-25T04:15:27.287Z,1022.18
2018-12-25T04:16:27.376Z,1022.23
2018-12-25T04:17:27.271Z,1022.24
2018-12-25T04:18:27.257Z,1022.15
2018-12-25T04:19:27.251Z,1022.15
2018-12-25T04:20:27.241Z,1022.14
2018-12-25T04:21:27.262Z,1022.19
2018-12-25T04:22:27.217Z,1022.21
2018-12-25T04:23:27.202Z,1022.18
2018-12-25T04:24:27.191Z,1022.15
2018-12-25T04:25:27.187Z,1022.16
2018-12-25T04:26:27.179Z,1022.17
2018-12-25T04:27:27.181Z,1022.14
2018-12-25T04:28:27.154Z,1022.15
2018-12-25T04:29:27.144Z,1022.17
2018-12-25T04:30:27.134Z,1022.16
2018-12-25T04:31:27.213Z,1022.17
2018-12-25T04:32:27.125Z,1022.20
2018-12-25T04:33:27.102Z,1022.18
2018-12-25T04:34:27.088Z,1022.16
2018-12-25T04:35:27.080Z,1022.19
2018-12-25T04:36:27.073Z,1022.17
2018-12-25T04:37:27.093Z,1022.13
2018-12-25T04:38:27.050Z,1022.19
2018-12-25T04:39:27.040Z,1022.20
2018-12-25T04:40:27.030Z,1022.18
2018-12-25T04:41:27.013Z,1022.14
2018-12-25T04:42:27.011Z,1022.18
2018-12-25T04:43:27.002Z,1022.23
2018-12-25T04:44:26.987Z,1022.32
2018-12-25T04:45:26.976Z,1022.20
2018-12-25T04:46:26.961Z,1022.29
2018-12-25T04:47:26.956Z,1022.32
2018-12-25T04:48:26.956Z,1022.28
2018-12-25T04:49:26.935Z,1022.32
2018-12-25T04:50:29.519Z,1022.33
2018-12-25T04:51:26.916Z,1022.29
2018-12-25T04:52:26.966Z,1022.20
2018-12-25T04:53:26.901Z,1022.28
2018-12-25T04:54:26.884Z,1022.28
2018-12-25T04:55:26.867Z,1022.25
2018-12-25T04:56:26.857Z,1022.33
2018-12-25T04:57:26.870Z,1022.32
2018-12-25T04:58:26.837Z,1022.36
2018-12-25T04:59:26.830Z,1022.41
2018-12-25T05:00:26.812Z,1022.41
2018-12-25T05:01:26.805Z,1022.51
2018-12-25T05:02:26.792Z,1022.43
2018-12-25T05:03:26.796Z,1022.42
2018-12-25T05:04:26.809Z,1022.45
2018-12-25T05:05:26.767Z,1022.40
2018-12-25T05:06:26.754Z,1022.40
2018-12-25T05:07:26.744Z,1022.40
2018-12-25T05:08:26.731Z,1022.37
2018-12-25T05:09:26.724Z,1022.40
2018-12-25T05:10:26.722Z,1022.37
2018-12-25T05:11:26.706Z,1022.36
2018-12-25T05:12:26.689Z,1022.37
2018-12-25T05:13:26.676Z,1022.39
2018-12-25T05:14:26.690Z,1022.35
2018-12-25T05:15:26.660Z,1022.41
2018-12-25T05:16:27.440Z,1022.46
2018-12-25T05:17:26.635Z,1022.45
2018-12-25T05:18:26.623Z,1022.40
2018-12-25T05:19:26.613Z,1022.43
2018-12-25T05:20:26.618Z,1022.41
2018-12-25T05:21:26.597Z,1022.40
2018-12-25T05:22:26.588Z,1022.39
2018-12-25T05:23:26.572Z,1022.41
2018-12-25T05:24:26.561Z,1022.47
2018-12-25T05:25:26.566Z,1022.47
2018-12-25T05:26:26.562Z,1022.45
2018-12-25T05:27:26.534Z,1022.47
2018-12-25T05:28:26.528Z,1022.45
2018-12-25T05:29:26.517Z,1022.45
2018-12-25T05:30:26.508Z,1022.46
2018-12-25T05:31:26.492Z,1022.50
2018-12-25T05:32:26.522Z,1022.47
2018-12-25T05:33:26.474Z,1022.50
2018-12-25T05:34:26.467Z,1022.47
2018-12-25T05:35:26.449Z,1022.59
2018-12-25T05:36:26.435Z,1022.56
2018-12-25T05:37:26.425Z,1022.58
2018-12-25T05:38:26.421Z,1022.63
2018-12-25T05:39:26.411Z,1022.61
2018-12-25T05:40:26.403Z,1022.59
2018-12-25T05:41:26.388Z,1022.54
2018-12-25T05:42:26.373Z,1022.55
2018-12-25T05:43:26.400Z,1022.56
2018-12-25T05:44:26.356Z,1022.52
2018-12-25T05:45:26.347Z,1022.51
2018-12-25T05:46:26.331Z,1022.57
2018-12-25T05:47:26.320Z,1022.60
2018-12-25T05:48:26.318Z,1022.55
2018-12-25T05:49:26.318Z,1022.59
2018-12-25T05:50:26.288Z,1022.53
2018-12-25T05:51:26.283Z,1022.53
2018-12-25T05:52:26.268Z,1022.50
2018-12-25T05:53:26.265Z,1022.54
2018-12-25T05:54:26.280Z,1022.53
2018-12-25T05:55:26.238Z,1022.53
2018-12-25T05:56:26.225Z,1022.58
2018-12-25T05:57:26.221Z,1022.58
2018-12-25T05:58:26.216Z,1022.53
2018-12-25T05:59:26.200Z,1022.54
2018-12-25T06:00:26.198Z,1022.57
2018-12-25T06:01:26.182Z,1022.55
2018-12-25T06:02:26.169Z,1022.50
2018-12-25T06:03:26.158Z,1022.47
2018-12-25T06:04:26.143Z,1022.50
2018-12-25T06:05:26.141Z,1022.47
2018-12-25T06:06:26.121Z,1022.45
2018-12-25T06:07:26.115Z,1022.43
2018-12-25T06:08:26.100Z,1022.45
2018-12-25T06:09:26.107Z,1022.43
2018-12-25T06:10:26.080Z,1022.48
2018-12-25T06:11:26.083Z,1022.47
2018-12-25T06:12:26.065Z,1022.47
2018-12-25T06:13:26.053Z,1022.50
2018-12-25T06:14:26.038Z,1022.52
2018-12-25T06:15:26.065Z,1022.46
2018-12-25T06:16:26.019Z,1022.46
2018-12-25T06:17:26.005Z,1022.49
2018-12-25T06:18:25.997Z,1022.42
2018-12-25T06:19:25.991Z,1022.49
2018-12-25T06:20:25.974Z,1022.49
2018-12-25T06:21:25.975Z,1022.50
2018-12-25T06:22:25.980Z,1022.48
2018-12-25T06:23:25.944Z,1022.52
2018-12-25T06:24:25.937Z,1022.47
2018-12-25T06:25:25.922Z,1022.52
2018-12-25T06:26:25.916Z,1022.50
2018-12-25T06:27:25.907Z,1022.48
2018-12-25T06:28:25.904Z,1022.56
2018-12-25T06:29:25.886Z,1022.50
2018-12-25T06:30:25.870Z,1022.51
2018-12-25T06:31:25.863Z,1022.56
2018-12-25T06:32:25.849Z,1022.56
2018-12-25T06:33:25.859Z,1022.60
2018-12-25T06:34:25.837Z,1022.53
2018-12-25T06:35:25.822Z,1022.58
2018-12-25T06:36:25.814Z,1022.56
2018-12-25T06:37:25.795Z,1022.56
2018-12-25T06:38:25.786Z,1022.54
2018-12-25T06:39:25.815Z,1022.54
2018-12-25T06:40:25.764Z,1022.46
2018-12-25T06:41:25.755Z,1022.44
2018-12-25T06:42:25.743Z,1022.41
2018-12-25T06:43:25.740Z,1022.36
2018-12-25T06:44:25.726Z,1022.26
2018-12-25T06:45:25.721Z,1022.27
2018-12-25T06:46:25.702Z,1022.24
2018-12-25T06:47:25.691Z,1022.20
2018-12-25T06:48:25.681Z,1022.12
2018-12-25T06:49:25.672Z,1022.13
2018-12-25T06:50:25.673Z,1022.16
2018-12-25T06:51:25.657Z,1022.12
2018-12-25T06:52:25.649Z,1022.13
2018-12-25T06:53:25.633Z,1022.16
2018-12-25T06:54:25.617Z,1022.12
2018-12-25T06:55:25.624Z,1022.15
2018-12-25T06:56:25.596Z,1022.15
2018-12-25T06:57:25.595Z,1022.11
2018-12-25T06:58:25.581Z,1022.17
2018-12-25T06:59:25.575Z,1022.15
2018-12-25T07:00:25.564Z,1022.16
2018-12-25T07:01:25.547Z,1022.22
2018-12-25T07:02:25.539Z,1022.24
2018-12-25T07:03:25.532Z,1022.31
2018-12-25T07:04:25.523Z,1022.27
2018-12-25T07:05:25.520Z,1022.22
2018-12-25T07:06:25.530Z,1022.13
2018-12-25T07:07:25.481Z,1022.11
2018-12-25T07:08:25.478Z,1022.12
2018-12-25T07:09:25.461Z,1022.07
2018-12-25T07:10:25.455Z,1022.09
2018-12-25T07:11:25.470Z,1022.10
2018-12-25T07:12:25.429Z,1022.02
2018-12-25T07:13:25.552Z,1021.92
2018-12-25T07:14:25.410Z,1021.98
2018-12-25T07:15:32.759Z,1022.00
2018-12-25T07:16:26.392Z,1021.98
2018-12-25T07:17:25.383Z,1021.90
2018-12-25T07:18:25.377Z,1021.94
2018-12-25T07:19:25.355Z,1021.91
2018-12-25T07:20:25.348Z,1021.93
2018-12-25T07:21:25.336Z,1021.89
2018-12-25T07:22:25.362Z,1021.89
2018-12-25T07:23:25.310Z,1021.87
2018-12-25T07:24:25.304Z,1021.88
2018-12-25T07:25:25.294Z,1021.90
2018-12-25T07:26:25.283Z,1021.89
2018-12-25T07:27:25.281Z,1021.88
2018-12-25T07:28:25.411Z,1021.80
2018-12-25T07:29:25.251Z,1021.83
2018-12-25T07:30:25.235Z,1021.85
2018-12-25T07:31:25.229Z,1021.87
2018-12-25T07:32:25.215Z,1021.89
2018-12-25T07:33:25.207Z,1021.90
2018-12-25T07:34:25.200Z,1021.87
2018-12-25T07:35:25.199Z,1021.88
2018-12-25T07:36:25.177Z,1021.83
2018-12-25T07:37:25.165Z,1021.75
2018-12-25T07:38:25.150Z,1021.80
2018-12-25T07:39:25.175Z,1021.76
2018-12-25T07:40:25.131Z,1021.79
2018-12-25T07:41:25.124Z,1021.79
2018-12-25T07:42:25.114Z,1021.79
2018-12-25T07:43:25.104Z,1021.82
2018-12-25T07:44:25.091Z,1021.77
2018-12-25T07:45:25.091Z,1021.80
2018-12-25T07:46:25.071Z,1021.72
2018-12-25T07:47:25.057Z,1021.73
2018-12-25T07:48:25.050Z,1021.75
2018-12-25T07:49:25.040Z,1021.74
2018-12-25T07:50:25.032Z,1021.68
2018-12-25T07:51:25.017Z,1021.69
2018-12-25T07:52:26.843Z,1021.68
2018-12-25T07:53:24.996Z,1021.72
2018-12-25T07:54:25.015Z,1021.75
2018-12-25T07:55:24.971Z,1021.72
2018-12-25T07:56:24.978Z,1021.74
2018-12-25T07:57:24.951Z,1021.69
2018-12-25T07:58:24.939Z,1021.73
2018-12-25T07:59:24.929Z,1021.70
2018-12-25T08:00:24.919Z,1021.67
2018-12-25T08:01:24.916Z,1021.70
2018-12-25T08:02:24.901Z,1021.67
2018-12-25T08:03:24.897Z,1021.71
2018-12-25T08:04:24.874Z,1021.72
2018-12-25T08:05:24.865Z,1021.80
2018-12-25T08:06:24.863Z,1021.82
2018-12-25T08:07:24.847Z,1021.84
2018-12-25T08:08:24.840Z,1021.87
2018-12-25T08:09:24.951Z,1021.86
2018-12-25T08:10:24.817Z,1021.87
2018-12-25T08:11:24.819Z,1021.91
2018-12-25T08:12:24.791Z,1021.95
2018-12-25T08:13:24.785Z,1021.92
2018-12-25T08:14:24.774Z,1021.90
2018-12-25T08:15:24.763Z,1021.93
2018-12-25T08:16:24.751Z,1021.96
2018-12-25T08:17:24.752Z,1021.96
2018-12-25T08:18:24.758Z,1021.96
2018-12-25T08:19:24.751Z,1021.94
2018-12-25T08:20:24.809Z,1021.99
2018-12-25T08:21:29.238Z,1021.91
2018-12-25T08:22:24.705Z,1021.93
2018-12-25T08:23:24.675Z,1021.90
2018-12-25T08:24:24.674Z,1021.99
2018-12-25T08:25:24.660Z,1022.01
2018-12-25T08:26:24.652Z,1021.96
2018-12-25T08:27:24.647Z,1021.98
2018-12-25T08:28:24.634Z,1021.91
2018-12-25T08:29:24.613Z,1022.01
2018-12-25T08:30:24.607Z,1021.96
2018-12-25T08:31:24.600Z,1022.04
2018-12-25T08:32:24.584Z,1022.06
2018-12-25T08:33:24.578Z,1022.04
2018-12-25T08:34:24.593Z,1022.01
2018-12-25T08:35:24.549Z,1022.06
2018-12-25T08:36:24.544Z,1021.98
2018-12-25T08:37:24.530Z,1022.02
2018-12-25T08:38:24.533Z,1021.95
2018-12-25T08:39:24.515Z,1021.99
2018-12-25T08:40:24.500Z,1021.95
2018-12-25T08:41:24.494Z,1022.00
2018-12-25T08:42:24.472Z,1021.95
2018-12-25T08:43:24.462Z,1021.91
2018-12-25T08:44:24.462Z,1021.91
2018-12-25T08:45:24.445Z,1021.88
2018-12-25T08:46:24.437Z,1021.87
2018-12-25T08:47:24.418Z,1021.78
2018-12-25T08:48:24.414Z,1021.89
2018-12-25T08:49:24.398Z,1021.87
2018-12-25T08:50:24.401Z,1021.90
2018-12-25T08:51:24.388Z,1021.93
2018-12-25T08:52:24.380Z,1021.93
2018-12-25T08:53:24.361Z,1021.89
2018-12-25T08:54:24.346Z,1021.89
2018-12-25T08:55:24.334Z,1021.89
2018-12-25T08:56:24.335Z,1021.85
2018-12-25T08:57:24.332Z,1021.83
2018-12-25T08:58:24.333Z,1021.86
2018-12-25T08:59:24.292Z,1021.88
2018-12-25T09:00:24.285Z,1021.87
2018-12-25T09:01:24.270Z,1021.87
2018-12-25T09:02:24.259Z,1021.88
2018-12-25T09:03:24.257Z,1021.90
2018-12-25T09:04:24.261Z,1021.96
2018-12-25T09:05:24.236Z,1021.94
2018-12-25T09:06:24.222Z,1021.93
2018-12-25T09:07:24.211Z,1021.99
2018-12-25T09:08:24.200Z,1022.06
2018-12-25T09:09:24.191Z,1022.06
2018-12-25T09:10:24.210Z,1022.09
2018-12-25T09:11:24.164Z,1022.08
2018-12-25T09:12:24.159Z,1022.08
2018-12-25T09:13:24.142Z,1022.13
2018-12-25T09:14:24.141Z,1022.08
2018-12-25T09:15:24.123Z,1022.10
2018-12-25T09:16:24.125Z,1022.08
2018-12-25T09:17:24.104Z,1022.09
2018-12-25T09:18:24.094Z,1022.12
2018-12-25T09:19:24.084Z,1022.15
2018-12-25T09:20:24.077Z,1022.09
2018-12-25T09:21:24.067Z,1022.09
2018-12-25T09:22:24.061Z,1022.12
2018-12-25T09:23:24.097Z,1022.21
2018-12-25T09:24:24.026Z,1022.14
2018-12-25T09:25:24.025Z,1022.19
2018-12-25T09:26:24.009Z,1022.15
2018-12-25T09:27:24.022Z,1022.14
2018-12-25T09:28:23.993Z,1022.18
2018-12-25T09:29:23.993Z,1022.09
2018-12-25T09:30:24.044Z,1022.04
2018-12-25T09:31:23.964Z,1021.98
2018-12-25T09:32:23.962Z,1021.94
2018-12-25T09:33:23.944Z,1021.83
2018-12-25T09:34:23.921Z,1021.95
2018-12-25T09:35:23.910Z,1021.92
2018-12-25T09:36:23.908Z,1021.86
2018-12-25T09:37:23.910Z,1021.91
2018-12-25T09:38:23.908Z,1021.88
2018-12-25T09:39:23.868Z,1021.85
2018-12-25T09:40:23.858Z,1021.93
2018-12-25T09:41:23.863Z,1022.05
2018-12-25T09:42:23.846Z,1021.96
2018-12-25T09:43:23.838Z,1021.97
2018-12-25T09:44:23.838Z,1021.98
2018-12-25T09:45:23.813Z,1021.96
2018-12-25T09:46:23.806Z,1021.99
2018-12-25T09:47:23.801Z,1021.96
2018-12-25T09:48:23.784Z,1021.93
2018-12-25T09:49:23.808Z,1021.97
2018-12-25T09:50:23.753Z,1021.98
2018-12-25T09:51:23.744Z,1021.94
2018-12-25T09:52:23.733Z,1021.86
2018-12-25T09:53:23.742Z,1021.77
2018-12-25T09:54:23.712Z,1021.92
2018-12-25T09:55:23.738Z,1021.90
2018-12-25T09:56:23.706Z,1021.80
2018-12-25T09:57:23.686Z,1021.78
2018-12-25T09:58:23.675Z,1021.84
2018-12-25T09:59:23.717Z,1021.80
2018-12-25T10:00:23.676Z,1021.77
2018-12-25T10:01:23.645Z,1021.83
2018-12-25T10:02:23.660Z,1021.87
2018-12-25T10:03:23.654Z,1021.84
2018-12-25T10:04:23.614Z,1021.89
2018-12-25T10:05:23.621Z,1021.88
2018-12-25T10:06:23.589Z,1021.84
2018-12-25T10:07:23.574Z,1021.89
2018-12-25T10:08:23.566Z,1021.88
2018-12-25T10:09:23.569Z,1021.85
2018-12-25T10:10:23.542Z,1021.89
2018-12-25T10:11:23.800Z,1021.91
2018-12-25T10:12:23.530Z,1021.95
2018-12-25T10:13:23.514Z,1021.91
2018-12-25T10:14:23.510Z,1021.93
2018-12-25T10:15:23.495Z,1021.94
2018-12-25T10:16:23.489Z,1021.97
2018-12-25T10:17:23.516Z,1022.04
2018-12-25T10:18:23.461Z,1021.91
2018-12-25T10:19:23.498Z,1021.94
2018-12-25T10:20:23.462Z,1021.85
2018-12-25T10:21:23.427Z,1021.89
2018-12-25T10:22:23.430Z,1021.94
2018-12-25T10:23:23.416Z,1021.92
2018-12-25T10:24:23.402Z,1021.92
2018-12-25T10:25:23.445Z,1021.90
2018-12-25T10:26:23.386Z,1021.91
2018-12-25T10:27:23.406Z,1021.92
2018-12-25T10:28:23.360Z,1021.99
2018-12-25T10:29:23.359Z,1022.04
2018-12-25T10:30:23.347Z,1021.90
2018-12-25T10:31:23.383Z,1021.86
2018-12-25T10:32:23.317Z,1021.90
2018-12-25T10:33:23.302Z,1021.80
2018-12-25T10:34:23.289Z,1021.80
2018-12-25T10:35:23.279Z,1021.74
2018-12-25T10:36:23.270Z,1021.77
2018-12-25T10:37:23.266Z,1021.81
2018-12-25T10:38:23.250Z,1021.85
2018-12-25T10:39:23.244Z,1021.85
2018-12-25T10:40:23.225Z,1021.88
2018-12-25T10:41:23.226Z,1021.91
2018-12-25T10:42:23.261Z,1021.91
2018-12-25T10:43:23.290Z,1021.91
2018-12-25T10:44:23.250Z,1021.96
2018-12-25T10:45:23.177Z,1021.95
2018-12-25T10:46:23.224Z,1021.94
2018-12-25T10:47:23.162Z,1021.91
2018-12-25T10:48:23.140Z,1021.81
2018-12-25T10:49:23.150Z,1021.83
2018-12-25T10:50:23.122Z,1021.81
2018-12-25T10:51:23.108Z,1021.82
2018-12-25T10:52:23.104Z,1021.77
2018-12-25T10:53:23.184Z,1021.83
2018-12-25T10:54:23.108Z,1021.85
2018-12-25T10:55:23.085Z,1021.88
2018-12-25T10:56:23.053Z,1021.87
2018-12-25T10:57:23.053Z,1021.83
2018-12-25T10:58:23.074Z,1021.79
2018-12-25T10:59:23.050Z,1021.86
2018-12-25T11:00:23.026Z,1021.84
2018-12-25T11:01:23.063Z,1021.92
2018-12-25T11:02:22.993Z,1021.91
2018-12-25T11:03:22.979Z,1021.94
2018-12-25T11:04:23.020Z,1021.86
2018-12-25T11:05:22.966Z,1021.91
2018-12-25T11:06:22.954Z,1021.83
2018-12-25T11:07:22.959Z,1021.82
2018-12-25T11:08:22.996Z,1021.83
2018-12-25T11:09:22.920Z,1021.84
2018-12-25T11:10:22.904Z,1021.82
2018-12-25T11:11:22.932Z,1021.86
2018-12-25T11:12:22.891Z,1021.89
2018-12-25T11:13:22.879Z,1021.85
2018-12-25T11:14:22.862Z,1021.78
2018-12-25T11:15:22.861Z,1021.75
2018-12-25T11:16:22.852Z,1021.78
2018-12-25T11:17:22.855Z,1021.79
2018-12-25T11:18:22.820Z,1021.82
2018-12-25T11:19:22.817Z,1021.77
2018-12-25T11:20:22.805Z,1021.83
2018-12-25T11:21:22.833Z,1021.78
2018-12-25T11:22:22.834Z,1021.79
2018-12-25T11:23:22.772Z,1021.78
2018-12-25T11:24:22.763Z,1021.79
2018-12-25T11:25:22.747Z,1021.76
2018-12-25T11:26:22.781Z,1021.76
2018-12-25T11:27:22.728Z,1021.73
2018-12-25T11:28:22.751Z,1021.73
2018-12-25T11:29:22.704Z,1021.73
2018-12-25T11:30:22.694Z,1021.73
2018-12-25T11:31:30.454Z,1021.73
2018-12-25T11:32:22.669Z,1021.77
2018-12-25T11:33:22.664Z,1021.75
2018-12-25T11:34:22.657Z,1021.82
2018-12-25T11:35:22.639Z,1021.79
2018-12-25T11:36:22.627Z,1021.83
2018-12-25T11:37:22.616Z,1021.77
2018-12-25T11:38:22.611Z,1021.75
2018-12-25T11:39:22.607Z,1021.80
2018-12-25T11:40:22.585Z,1021.83
2018-12-25T11:41:22.573Z,1021.79
2018-12-25T11:42:22.571Z,1021.86
2018-12-25T11:43:22.553Z,1021.78
2018-12-25T11:44:22.577Z,1021.83
2018-12-25T11:45:22.535Z,1021.88
2018-12-25T11:46:22.524Z,1021.82
2018-12-25T11:47:22.514Z,1021.77
2018-12-25T11:48:22.504Z,1021.86
2018-12-25T11:49:22.489Z,1021.83
2018-12-25T11:50:22.517Z,1021.82
2018-12-25T11:51:22.551Z,1021.79
2018-12-25T11:52:28.364Z,1021.79
2018-12-25T11:53:23.448Z,1021.81
2018-12-25T11:54:22.436Z,1021.79
2018-12-25T11:55:22.424Z,1021.72
2018-12-25T11:56:22.429Z,1021.81
2018-12-25T11:57:22.407Z,1021.82
2018-12-25T11:58:22.399Z,1021.82
2018-12-25T11:59:22.385Z,1021.72
2018-12-25T12:00:22.386Z,1021.81
2018-12-25T12:01:22.360Z,1021.87
2018-12-25T12:02:22.355Z,1021.92
2018-12-25T12:03:22.343Z,1021.88
2018-12-25T12:04:22.333Z,1021.83
2018-12-25T12:05:22.315Z,1021.81